Terminal Aerodrome Forecast
Issued by NWS Buffalo, NY

Home | Current Version | Previous Version | Text Only | Print | Product List | Glossary On
Versions: 1 2 3 4 5 6 7 8 9 10 11 12 13 14 15 16 17 18 19 20 21 22 23 24 25 26 27 28
308
FTUS41 KBUF 251739
TAFART
TAF
KART 251739Z 2518/2618 25012G21KT P6SM SKC
     FM260000 24009KT P6SM BKN060
     FM260800 VRB03KT P6SM SCT035
     FM261300 00000KT P6SM BKN030=

USA.gov is the U.S. government's official web portal to all federal, state and local government web resources and services.